Data for 06/27/2013

Time Sea-Level Adjusted Pressure Absolute Pressure Temperature Relative Humidity Dew Point Precipitation   
(mb) (inHg) (mb) (inHg) (C) (F) (%) (C) (F) (mm) (in)
00:05 1025 30.27 854 25.22 12.2 53.9 88 10.3 50.5 0 0
00:10 1025 30.27 854 25.22 12.2 54 87 10.2 50.3 0 0
00:15 1025 30.27 854 25.22 12.3 54.2 87 10.2 50.4 0 0
00:20 1025 30.27 854 25.22 12.6 54.6 85 10.2 50.3 0 0
00:25 1025 30.27 854 25.22 12.8 55.1 84 10.3 50.5 0 0
00:30 1024 30.24 854 25.22 12.9 55.2 83 10.1 50.2 0 0
00:35 1024 30.24 854 25.22 13.1 55.6 81 10 50 0 0
00:40 1024 30.24 854 25.22 13 55.4 82 10 50.1 0 0
00:45 1024 30.24 854 25.22 12.6 54.7 83 9.9 49.7 0 0
00:50 1024 30.24 854 25.22 12.4 54.3 86 10.1 50.1 0 0
00:55 1025 30.27 854 25.22 12.1 53.9 86 9.8 49.7 0 0
01:00 1025 30.27 854 25.22 11.9 53.5 88 10 50 0 0
01:05 1024 30.24 854 25.22 11.7 53.1 86 9.5 49.2 0 0
01:10 1025 30.27 854 25.22 11.5 52.6 89 9.7 49.4 0 0
01:15 1025 30.27 854 25.22 11.2 52.2 88 9.4 48.9 0 0
01:20 1025 30.27 854 25.22 11.2 52.1 89 9.4 48.8 0 0
01:25 1025 30.27 854 25.22 11.4 52.5 88 9.4 48.9 0 0
01:30 1024 30.24 854 25.22 11.2 52.2 88 9.3 48.7 0 0
01:35 1025 30.27 854 25.22 11.3 52.4 87 9.2 48.5 0 0
01:40 1025 30.27 854 25.22 10.9 51.6 88 9 48.2 0 0
01:45 1025 30.27 854 25.22 10.6 51 89 8.8 47.9 0 0
01:50 1025 30.27 854 25.22 10.7 51.2 87 8.6 47.5 0 0
01:55 1025 30.27 854 25.22 10.6 51 88 8.6 47.6 0 0
02:00 1025 30.27 854 25.22 10.2 50.3 89 8.5 47.3 0 0
02:05 1025 30.27 854 25.22 10 50 90 8.5 47.3 0 0
02:10 1024 30.24 854 25.22 10.2 50.3 88 8.3 47 0 0
02:15 1024 30.24 854 25.22 10.3 50.5 89 8.6 47.5 0 0
02:20 1024 30.24 854 25.22 10.3 50.5 90 8.7 47.7 0 0
02:25 1025 30.27 854 25.22 10.6 51.1 88 8.7 47.7 0 0
02:30 1025 30.27 854 25.22 10.5 51 89 8.9 48 0 0
02:35 1025 30.27 854 25.22 10.1 50.1 91 8.7 47.6 0 0
02:40 1025 30.27 854 25.22 9.7 49.4 92 8.4 47.1 0 0
02:45 1025 30.27 854 25.22 9.4 48.8 93 8.3 46.9 0 0
02:50 1025 30.27 854 25.22 9.4 48.9 92 8.2 46.7 0 0
02:55 1025 30.27 854 25.22 9.1 48.4 92 7.9 46.2 0 0
03:00 1025 30.27 854 25.22 8.8 47.8 93 7.7 45.9 0 0
03:05 1025 30.27 854 25.22 8.6 47.4 93 7.5 45.6 0 0
03:10 1025 30.27 854 25.22 8.4 47.1 94 7.4 45.4 0 0
03:15 1025 30.27 854 25.22 8.1 46.6 94 7.2 44.9 0 0
03:20 1025 30.27 854 25.22 7.9 46.2 94 7 44.6 0 0
03:25 1025 30.27 854 25.22 7.9 46.3 95 7.2 45 0 0
03:30 1025 30.27 854 25.22 8.4 47 94 7.4 45.3 0 0
03:35 1025 30.27 854 25.22 8.3 46.9 92 7.1 44.9 0 0
03:40 1025 30.27 854 25.22 8.1 46.6 91 6.7 44.1 0 0
03:45 1025 30.27 854 25.22 7.6 45.7 93 6.6 43.9 0 0
03:50 1025 30.27 854 25.22 7.3 45.2 95 6.6 43.8 0 0
03:55 1025 30.27 854 25.22 7.6 45.6 94 6.7 44 0 0
04:00 1025 30.27 855 25.25 7.6 45.8 94 6.8 44.2 0 0
04:05 1025 30.27 855 25.25 7.9 46.2 94 7 44.6 0 0
04:10 1025 30.27 855 25.25 8.1 46.6 93 7 44.7 0 0
04:15 1025 30.27 855 25.25 8 46.5 92 6.9 44.4 0 0
04:20 1025 30.27 855 25.25 7.6 45.8 93 6.6 43.9 0 0
04:25 1025 30.27 855 25.25 7.5 45.4 95 6.7 44 0 0
04:30 1026 30.3 855 25.25 7.7 45.8 95 6.9 44.4 0 0
04:35 1026 30.3 855 25.25 8 46.5 93 7 44.7 0 0
04:40 1026 30.3 855 25.25 8.1 46.6 93 7.1 44.8 0 0
04:45 1026 30.3 855 25.25 8.1 46.6 93 7.1 44.7 0 0
04:50 1026 30.3 855 25.25 7.9 46.2 93 6.9 44.3 0 0
04:55 1026 30.3 855 25.25 7.6 45.7 94 6.7 44 0 0
05:00 1026 30.3 855 25.25 7.4 45.3 94 6.5 43.8 0 0
05:05 1026 30.3 855 25.25 7.2 45 95 6.4 43.6 0 0
05:10 1026 30.3 855 25.25 7.2 45 94 6.4 43.4 0 0
05:15 1026 30.3 855 25.25 7 44.7 95 6.2 43.2 0 0
05:20 1026 30.3 855 25.25 7.1 44.7 96 6.4 43.5 0 0
05:25 1026 30.3 855 25.25 7.2 45 95 6.5 43.8 0 0
05:30 1026 30.3 855 25.25 7.3 45.2 95 6.6 44 0 0
05:35 1026 30.3 855 25.25 7.4 45.3 95 6.7 44 0 0
05:40 1026 30.3 855 25.25 7.3 45.2 95 6.6 43.9 0 0
05:45 1026 30.3 855 25.25 7.2 45 95 6.5 43.7 0 0
05:50 1026 30.3 855 25.25 7.1 44.7 95 6.4 43.5 0 0
05:55 1026 30.3 855 25.25 7 44.6 96 6.4 43.5 0 0
06:00 1026 30.3 855 25.25 7.2 45 95 6.5 43.8 0 0
06:05 1026 30.3 855 25.25 7.3 45.1 95 6.5 43.8 0 0
06:10 1026 30.3 855 25.25 7.3 45.2 95 6.6 43.9 0 0
06:15 1026 30.3 856 25.28 7.6 45.6 95 6.8 44.3 0 0
06:20 1026 30.3 856 25.28 8 46.4 94 7.1 44.9 0 0
06:25 1027 30.33 856 25.28 8.5 47.2 93 7.4 45.3 0 0
06:30 1027 30.33 856 25.28 9 48.1 91 7.6 45.7 0 0
06:35 1027 30.33 856 25.28 9.5 49.1 89 7.8 46.1 0 0
06:40 1027 30.33 856 25.28 9.8 49.7 89 8.2 46.7 0 0
06:45 1027 30.33 856 25.28 10.2 50.4 89 8.4 47.1 0 0
06:50 1027 30.33 856 25.28 10.7 51.3 87 8.6 47.4 0 0
06:55 1027 30.33 856 25.28 11.2 52.2 85 8.8 47.9 0 0
07:00 1027 30.33 856 25.28 11.6 52.8 84 9 48.2 0 0
07:05 1027 30.33 856 25.28 11.9 53.5 84 9.2 48.6 0 0
07:10 1027 30.33 856 25.28 12.2 54 84 9.6 49.2 0 0
07:15 1027 30.33 856 25.28 12.5 54.5 81 9.4 48.9 0 0
07:20 1027 30.33 856 25.28 12.8 55 80 9.3 48.8 0 0
07:25 1027 30.33 856 25.28 13.1 55.5 78 9.4 49 0 0
07:30 1027 30.33 856 25.28 13.2 55.7 79 9.7 49.5 0 0
07:35 1027 30.33 856 25.28 13.5 56.2 77 9.5 49.1 0 0
07:40 1027 30.33 856 25.28 13.9 56.9 75 9.6 49.2 0 0
07:45 1027 30.33 856 25.28 14.6 58.2 75 10.2 50.3 0 0
07:50 1027 30.33 856 25.28 15.3 59.6 69 9.7 49.4 0 0
07:55 1027 30.33 856 25.28 15.6 60 65 9.2 48.5 0 0
08:00 1027 30.33 856 25.28 15.3 59.6 69 9.7 49.4 0 0
08:05 1027 30.33 856 25.28 15.1 59.1 73 10.4 50.7 0 0
08:10 1027 30.33 856 25.28 15.1 59.2 66 8.9 48 0 0
08:15 1027 30.33 857 25.31 15.2 59.3 71 10 50.1 0 0
08:20 1027 30.33 856 25.28 15.2 59.4 72 10.3 50.6 0 0
08:25 1027 30.33 856 25.28 15.2 59.4 72 10.2 50.4 0 0
08:30 1027 30.33 856 25.28 15.4 59.7 66 9 48.3 0 0
08:35 1027 30.33 856 25.28 15.5 59.9 71 10.4 50.7 0 0
08:40 1027 30.33 857 25.31 15.8 60.5 70 10.5 50.9 0 0
08:45 1027 30.33 857 25.31 16.1 60.9 64 9.3 48.8 0 0
08:50 1027 30.33 857 25.31 16.2 61.1 67 10.1 50.2 0 0
08:55 1027 30.33 857 25.31 16.2 61.2 64 9.5 49.2 0 0
09:00 1027 30.33 857 25.31 16.4 61.5 63 9.4 49 0 0
09:05 1027 30.33 857 25.31 16.6 61.9 63 9.6 49.3 0 0
09:10 1027 30.33 857 25.31 17.1 62.9 63 10 50.1 0 0
09:15 1027 30.33 857 25.31 17.2 63 64 10.4 50.7 0 0
09:20 1027 30.33 857 25.31 17.2 62.9 64 10.3 50.6 0 0
09:25 1027 30.33 857 25.31 17.1 62.7 63 10.1 50.2 0 0
09:30 1027 30.33 857 25.31 17.2 62.9 62 10 50 0 0
09:35 1027 30.33 857 25.31 17.6 63.7 63 10.6 51.1 0 0
18:30 1025 30.27 855 25.25 29 84.2 25 7.5 45.5 0 0
18:35 1025 30.27 855 25.25 29 84.2 29 9.4 49 0 0
18:40 1025 30.27 855 25.25 28.1 82.5 24 5.8 42.5 0 0
18:45 1025 30.27 855 25.25 28 82.4 36 11.9 53.4 0 0
18:50 1025 30.27 855 25.25 29 84.2 28 9 48.2 0 0
18:55 1025 30.27 855 25.25 30 85.9 22 6.1 43 0 0
19:00 1025 30.27 855 25.25 29.4 85 26 8.2 46.8 0 0
19:05 1025 30.27 855 25.25 28.9 83.9 27 8.1 46.7 0 0
19:10 1025 30.27 855 25.25 28.2 82.7 28 8 46.4 0 0
19:15 1025 30.27 855 25.25 27.3 81.1 26 6.2 43.1 0 0
19:20 1025 30.27 855 25.25 27.3 81.1 30 8.5 47.3 0 0
19:25 1025 30.27 855 25.25 27.2 80.9 31 9 48.2 0 0
19:30 1025 30.27 855 25.25 26.7 80.1 33 9.5 49.1 0 0
19:35 1026 30.3 855 25.25 26.3 79.3 30 7.5 45.5 0 0
19:40 1026 30.3 855 25.25 26.4 79.5 32 8.7 47.7 0 0
19:45 1026 30.3 855 25.25 26.4 79.6 32 8.7 47.6 0 0
19:50 1026 30.3 855 25.25 26.8 80.2 30 7.9 46.3 0 0
19:55 1026 30.3 855 25.25 27.2 81 30 8.4 47.1 0 0
20:00 1026 30.3 855 25.25 27.8 82.1 25 6.6 43.9 0 0
20:05 1026 30.3 855 25.25 28.1 82.5 26 7.3 45.2 0 0
20:10 1026 30.3 855 25.25 28 82.3 32 9.9 49.8 0 0
20:15 1026 30.3 855 25.25 27.5 81.5 28 7.6 45.6 0 0
20:20 1026 30.3 855 25.25 27.2 81 26 6.1 42.9 0 0
20:25 1026 30.3 855 25.25 27.4 81.3 26 6.4 43.6 0 0
20:30 1026 30.3 855 25.25 27.4 81.4 26 6.4 43.5 0 0
20:35 1026 30.3 855 25.25 27 80.6 37 11.5 52.6 0 0
20:40 1026 30.3 855 25.25 25.8 78.4 45 13.2 55.8 0 0
20:45 1026 30.3 855 25.25 23.8 74.9 57 14.9 58.7 0 0
20:50 1026 30.3 855 25.25 22 71.6 62 14.4 57.9 0 0
20:55 1026 30.3 855 25.25 20.7 69.3 65 14 57.1 0 0
21:00 1026 30.3 855 25.25 19.9 67.7 66 13.3 56 0 0
21:05 1026 30.3 855 25.25 19.5 67 67 13.3 55.9 0 0
21:10 1026 30.3 855 25.25 18.8 65.8 69 12.9 55.3 0 0
21:15 1026 30.3 855 25.25 18.3 65 69 12.6 54.7 0 0
21:20 1026 30.3 855 25.25 18 64.5 70 12.4 54.4 0 0
21:25 1026 30.3 856 25.28 17.5 63.5 72 12.5 54.6 0 0
21:30 1026 30.3 856 25.28 17.1 62.8 62 9.9 49.8 0 0
21:35 1027 30.33 856 25.28 18 64.3 62 10.8 51.4 0 0
21:40 1027 30.33 856 25.28 17.6 63.7 64 10.8 51.5 0 0
21:45 1027 30.33 856 25.28 17.1 62.7 68 11.2 52.1 0 0
21:50 1027 30.33 856 25.28 16.1 60.9 74 11.5 52.7 0 0
21:55 1027 30.33 856 25.28 15.5 59.8 73 10.7 51.2 0 0
22:00 1027 30.33 856 25.28 15.6 60.1 71 10.5 50.9 0 0
22:05 1027 30.33 856 25.28 15.8 60.5 72 10.8 51.4 0 0
22:10 1027 30.33 856 25.28 15.3 59.6 75 11 51.8 0 0
22:15 1027 30.33 856 25.28 14.8 58.7 74 10.3 50.5 0 0
22:20 1027 30.33 856 25.28 15.1 59.1 71 9.9 49.8 0 0
22:25 1027 30.33 857 25.31 15.9 60.5 62 8.8 47.8 0 0
22:30 1027 30.33 857 25.31 17 62.6 57 8.5 47.3 0 0
22:35 1027 30.33 857 25.31 18.3 65 53 8.6 47.4 0 0
22:40 1027 30.33 857 25.31 18.4 65.1 55 9.4 49 0 0
22:45 1027 30.33 857 25.31 18 64.4 56 9.2 48.5 0 0
22:50 1027 30.33 857 25.31 17.9 64.3 56 9.1 48.4 0 0
22:55 1028 30.36 857 25.31 17.9 64.2 56 9.1 48.3 0 0
23:00 1028 30.36 857 25.31 18 64.3 56 9.2 48.6 0 0
23:05 1028 30.36 857 25.31 18 64.3 55 8.9 48.1 0 0
23:10 1028 30.36 857 25.31 18.2 64.8 55 9.1 48.4 0 0
23:15 1028 30.36 857 25.31 18.3 64.9 56 9.4 48.9 0 0
23:20 1028 30.36 857 25.31 18.1 64.5 57 9.4 48.9 0 0
23:25 1028 30.36 857 25.31 16.8 62.2 66 10.5 50.9 0 0
23:30 1028 30.36 857 25.31 15.1 59.1 72 10.2 50.3 0 0
23:35 1028 30.36 857 25.31 14.1 57.4 75 9.7 49.5 0 0
23:40 1028 30.36 857 25.31 14.1 57.4 72 9.3 48.7 0 0
23:45 1028 30.36 857 25.31 14.8 58.6 65 8.4 47.2 0 0
23:50 1028 30.36 857 25.31 15.3 59.5 68 9.5 49.1 0 0
23:55 1028 30.36 857 25.31 15.2 59.4 66 9 48.1 0 0
24:00 1028 30.36 857 25.31 15.2 59.4 67 9.1 48.4 0 0